CDT,Max TemperatureF,Mean TemperatureF,Min TemperatureF,Max Dew PointF,MeanDew PointF,Min DewpointF,Max Humidity, Mean Humidity, Min Humidity, Max Sea Level PressureIn, Mean Sea Level PressureIn, Min Sea Level PressureIn, Max VisibilityMiles, Mean VisibilityMiles, Min VisibilityMiles, Max Wind SpeedMPH, Mean Wind SpeedMPH, Max Gust SpeedMPH,PrecipitationIn, CloudCover, Events, WindDirDegrees
2013-8-1,78,66,53,59,54,48,94,65,39,30.06,29.98,29.89,10,10,10,12,4,,0.00,1,,277
2013-8-2,75,63,51,59,54,48,100,72,38,30.08,29.98,29.91,10,10,10,10,5,,0.00,0,,336
2013-8-3,75,62,48,57,50,46,100,69,36,30.23,30.17,30.09,10,10,10,14,6,21,0.00,1,,343
2013-8-4,73,62,50,61,53,46,94,72,50,30.25,30.13,29.95,10,10,10,10,5,16,0.00,2,Rain-Thunderstorm,128
2013-8-5,75,67,57,66,62,57,100,85,65,30.04,29.88,29.83,10,9,4,14,6,20,0.00,4,Rain-Thunderstorm,335
2013-8-6,80,68,55,66,61,54,100,84,58,29.86,29.77,29.68,10,9,2,31,6,46,0.31,2,Rain-Thunderstorm,247
2013-8-7,75,66,57,63,56,52,100,76,47,30.02,29.98,29.86,10,9,4,10,6,,0.00,4,,352
2013-8-8,77,67,57,61,58,54,94,79,50,30.05,30.02,29.99,10,10,10,8,3,,0.00,4,,231
2013-8-9,73,62,51,55,53,50,100,74,47,30.16,30.09,30.03,10,10,5,18,7,24,0.00,1,,309
2013-8-10,75,60,46,61,55,46,100,77,50,30.20,30.15,30.07,10,9,0,7,2,,0.00,2,Fog,149
2013-8-11,78,66,55,64,59,54,100,78,51,30.07,30.06,30.03,10,10,3,8,4,,0.00,2,,20
2013-8-12,78,63,48,59,55,48,100,73,42,30.12,30.08,30.05,10,10,10,13,6,18,0.00,0,,332
2013-8-13,75,60,44,55,49,45,100,68,38,30.22,30.18,30.12,10,10,10,8,4,,0.00,0,,21
2013-8-14,77,62,46,57,51,45,100,71,44,30.19,30.15,30.08,10,10,10,9,3,,0.00,1,,163
2013-8-15,78,64,51,63,56,50,100,76,44,30.13,30.10,30.07,10,9,0,8,3,,0.00,2,Fog,171
2013-8-16,77,64,50,61,56,50,100,77,50,30.17,30.15,30.13,10,8,0,15,6,20,0.00,1,Fog,166
2013-8-17,80,66,53,64,60,54,100,78,54,30.15,30.09,30.04,10,9,4,20,9,24,0.00,2,,165
2013-8-18,82,70,57,64,61,55,94,75,54,30.07,30.00,29.93,10,10,7,22,10,30,0.00,1,,174
2013-8-19,86,75,64,73,67,61,100,80,61,29.98,29.90,29.84,10,9,4,12,7,18,0.00,1,,161
2013-8-20,89,76,64,75,71,64,100,84,59,29.86,29.83,29.80,10,6,0,13,7,17,0.00,2,Fog,155
2013-8-21,87,76,66,73,67,57,100,77,42,30.04,29.91,29.79,10,7,0,12,6,18,0.00,2,Fog,18
2013-8-22,80,68,55,61,54,52,88,62,37,30.18,30.13,30.05,10,10,10,10,5,9,0.00,0,,37
2013-8-23,84,68,53,70,62,50,94,75,54,30.13,30.05,29.95,10,10,10,16,8,23,0.00,1,,134
2013-8-24,89,80,71,73,71,68,94,75,52,29.97,29.89,29.81,10,9,4,23,14,28,0.00,0,Thunderstorm,163
2013-8-25,93,82,71,75,73,70,94,75,52,29.94,29.90,29.87,10,10,5,14,10,18,0.00,0,,178
2013-8-26,91,81,71,75,74,72,100,78,55,29.94,29.88,29.80,10,9,4,15,7,22,0.00,0,Thunderstorm,164
2013-8-27,91,82,73,77,73,68,100,77,49,29.93,29.85,29.78,10,9,4,10,6,16,0.00,0,,63
2013-8-28,86,76,66,75,71,66,100,85,58,30.03,29.97,29.93,10,9,4,14,6,16,0.00,0,Rain-Thunderstorm,119
2013-8-29,93,82,71,73,72,70,100,76,49,29.97,29.89,29.82,10,8,1,20,9,25,0.00,1,,162
2013-8-30,86,75,64,70,66,63,100,78,48,29.98,29.92,29.88,10,9,0,10,7,,0.00,1,Fog,24
2013-8-31,89,74,60,72,65,59,100,82,43,29.91,29.82,29.72,10,10,0,32,6,41,0.20,0,Fog-Rain-Thunderstorm,179